A80 TRACON Summary / KATL TAF
ATL TRACON Summary:
Scattered showers and thunderstorms are possible overnight in the TRACON airspace. Expect mainly VFR conditions this evening outside of convection, with patch IFR/MVFR conditions developing early Sunday morning. Surface winds will be 3-6kts and mainly from the south to southeast. No significant flight hazards outside of convection are expected in the TRACON airspace.

Updated:8/30/2014 8:03 PM
ATL Terminal Aerodrome Forecast:

FTUS80 KATL 310545
KATL 310543Z 3106/0112 VRB03KT P6SM FEW040 BKN100
      TEMPO 3109/3113 4SM BR SCT012
     FM311400 23005KT P6SM SCT025 SCT250
     FM311800 24007KT P6SM SCT060 SCT150
     FM010100 25003KT P6SM FEW050 SCT250
ATL TRACON Area Remark:
ISOLATED TS POSSIBLE ALL QUADS UNTIL 08Z.
Convective Gate Forecast / Collaborative Convective Forecast Product / Vertical Wind Profile
Convective Gate Forecast
SIGMETS/ Southeast Radar & Satellite Loops (click on image to enlarge)

Southeast Radar Loop

 



USA.gov is the U.S. government's official web portal to all federal, state and local government web resources and services.